Time;durP1;ratioP1;P1;durP2;ratioP2;P2;SDS_P1;SDS_P2;PMS_P1;PMS_P2;Temp;Humidity;BMP_temperature;BMP_pressure;BME280_temperature;BME280_humidity;BME280_pressure;Samples;Min_cycle;Max_cycle;Signal;HPM_P1;HPM_P2
2022/03/22 00:01:35;;;;;;;20.10;11.10;;;4.20;63.80;;;3.07;53.71;98688.88;5009923;28;20429;-78
2022/03/22 00:04:02;;;;;;;19.08;11.63;;;4.30;63.90;;;2.98;53.62;98689.91;5010395;28;20428;-78
2022/03/22 00:06:28;;;;;;;21.13;11.27;;;4.20;63.40;;;2.98;53.42;98684.69;5010201;28;20890;-77
2022/03/22 00:08:54;;;;;;;22.20;10.90;;;4.30;63.60;;;2.81;53.76;98696.19;5012599;28;20932;-77
2022/03/22 00:11:22;;;;;;;20.07;10.97;;;4.20;63.60;;;2.80;54.03;98691.13;5013134;28;20577;-78
2022/03/22 00:13:48;;;;;;;23.52;12.15;;;4.10;63.80;;;2.95;54.70;98694.66;5013687;28;20403;-77
2022/03/22 00:16:14;;;;;;;18.98;12.15;;;4.10;64.80;;;2.95;54.41;98684.19;5013564;28;20412;-78
2022/03/22 00:18:40;;;;;;;22.42;12.40;;;4.10;64.80;;;2.93;53.78;98681.75;5013522;28;20412;-78
2022/03/22 00:21:06;;;;;;;22.52;11.77;;;4.10;64.40;;;2.78;54.45;98687.88;5011452;28;20420;-77
2022/03/22 00:23:32;;;;;;;20.23;11.77;;;4.10;64.60;;;2.78;54.41;98678.25;5013368;28;20405;-78
2022/03/22 00:25:58;;;;;;;19.77;11.63;;;4.10;64.60;;;2.77;54.48;98684.44;5013252;28;20770;-77
2022/03/22 00:28:25;;;;;;;18.58;11.43;;;4.10;65.00;;;2.67;54.42;98682.03;5013296;28;20405;-78
2022/03/22 00:30:52;;;;;;;17.13;10.63;;;4.00;64.90;;;2.62;54.52;98676.50;5012679;28;20397;-77
2022/03/22 00:33:18;;;;;;;17.77;10.80;;;4.00;64.90;;;2.58;54.44;98683.03;5013128;28;20490;-77
2022/03/22 00:35:44;;;;;;;19.65;12.77;;;3.90;64.80;;;2.79;54.68;98682.47;5013173;28;20503;-77
2022/03/22 00:38:16;;;;;;;20.77;12.20;;;4.00;65.30;;;2.77;55.10;98678.41;5013325;28;20405;-78
2022/03/22 00:40:43;;;;;;;18.77;10.45;;;4.00;65.90;;;2.54;55.59;98676.53;5012518;28;20424;-77
2022/03/22 00:43:10;;;;;;;19.65;11.43;;;3.90;65.60;;;2.59;55.23;98676.81;5011860;28;20405;-77
2022/03/22 00:45:38;;;;;;;20.70;12.93;;;3.90;65.90;;;2.72;56.06;98676.28;5013034;28;20420;-78
2022/03/22 00:48:08;;;;;;;23.15;12.48;;;3.80;67.00;;;2.62;56.13;98676.50;5013035;28;20397;-77
2022/03/22 00:50:36;;;;;;;19.58;12.15;;;3.80;67.40;;;2.57;55.96;98672.75;5012282;28;20894;-77
2022/03/22 00:53:05;;;;;;;21.92;12.45;;;3.80;67.00;;;2.45;56.20;98676.72;5012812;28;20413;-78
2022/03/22 00:55:32;;;;;;;18.53;11.77;;;3.80;67.00;;;2.47;56.43;98670.34;5012893;28;20912;-78
2022/03/22 00:57:58;;;;;;;19.00;11.70;;;3.80;67.20;;;2.43;56.09;98676.88;5012902;28;20401;-77
2022/03/22 01:00:27;;;;;;;21.58;13.35;;;3.80;67.20;;;2.53;56.56;98674.06;5012374;28;20819;-76
2022/03/22 01:02:56;;;;;;;21.95;12.88;;;3.70;67.70;;;2.51;55.87;98668.19;5012815;28;20405;-77
2022/03/22 01:05:23;;;;;;;22.30;12.80;;;3.70;67.40;;;2.55;55.52;98675.53;5012769;28;20411;-78
2022/03/22 01:07:52;;;;;;;20.13;12.15;;;3.70;67.00;;;2.33;55.96;98669.22;5012793;28;20894;-78
2022/03/22 01:10:20;;;;;;;18.83;11.30;;;3.70;67.10;;;2.29;56.17;98665.31;5012262;28;20901;-78
2022/03/22 01:12:47;;;;;;;22.08;12.10;;;3.60;67.30;;;2.30;56.25;98660.91;5025496;22;20460;-76
2022/03/22 01:15:15;;;;;;;21.55;13.23;;;3.60;67.30;;;2.30;56.32;98659.09;5011780;28;20396;-76
2022/03/22 01:17:42;;;;;;;25.80;13.25;;;3.60;67.50;;;2.30;56.41;98655.69;5012441;28;20396;-76
2022/03/22 01:20:11;;;;;;;21.20;13.00;;;3.60;67.70;;;2.22;56.75;98656.50;5010760;28;20550;-76
2022/03/22 01:22:38;;;;;;;22.35;13.18;;;3.50;67.70;;;2.33;56.31;98657.97;5012241;28;20435;-76
2022/03/22 01:25:07;;;;;;;27.00;14.02;;;3.60;67.70;;;2.38;56.61;98650.44;5012248;28;20399;-76
2022/03/22 01:27:34;;;;;;;22.80;13.63;;;3.50;68.20;;;2.28;56.92;98655.03;5012289;28;20412;-77
2022/03/22 01:30:00;;;;;;;21.17;12.93;;;3.50;68.30;;;2.25;57.04;98652.75;5011951;28;20413;-76
2022/03/22 01:32:26;;;;;;;24.63;14.38;;;3.50;68.40;;;2.33;56.64;98648.31;5007816;28;20782;-76
2022/03/22 01:34:52;;;;;;;20.02;12.18;;;3.50;68.40;;;2.07;57.14;98654.75;5006261;28;20414;-76
2022/03/22 01:37:19;;;;;;;20.23;12.70;;;3.40;68.30;;;2.12;56.67;98645.41;5011884;28;20401;-76
2022/03/22 01:39:45;;;;;;;22.70;13.23;;;3.50;68.20;;;2.14;57.18;98647.88;5011634;28;20416;-76
2022/03/22 01:42:11;;;;;;;21.45;11.57;;;3.40;68.50;;;1.94;57.24;98648.25;5011296;28;20435;-76
2022/03/22 01:44:37;;;;;;;19.27;12.03;;;3.30;68.40;;;1.90;57.27;98638.28;5012040;28;20416;-76
2022/03/22 01:47:04;;;;;;;24.42;14.35;;;3.30;68.80;;;2.04;57.74;98637.59;5011768;28;20404;-76
2022/03/22 01:49:30;;;;;;;23.48;13.48;;;3.30;69.60;;;2.03;57.67;98649.03;5011513;28;20478;-76
2022/03/22 01:51:56;;;;;;;27.80;15.07;;;3.30;69.30;;;2.10;56.84;98636.97;5011302;28;20409;-76
2022/03/22 01:54:24;;;;;;;24.58;14.18;;;3.30;69.20;;;2.00;57.75;98635.50;5011647;28;20413;-76
2022/03/22 01:56:50;;;;;;;20.80;12.87;;;3.30;69.90;;;1.85;57.67;98640.59;5011639;28;20409;-76
2022/03/22 01:59:16;;;;;;;23.63;13.70;;;3.20;69.50;;;1.89;57.63;98641.88;5011630;28;20415;-76
2022/03/22 02:07:14;;;;;;;22.15;13.93;;;3.20;70.30;;;1.83;58.59;98632.91;5011192;28;20397;-76
2022/03/22 02:09:41;;;;;;;26.90;13.70;;;3.20;70.60;;;1.74;58.34;98633.06;5011150;28;20401;-76
2022/03/22 02:12:09;;;;;;;22.65;13.10;;;3.10;70.40;;;1.71;58.34;98636.84;5010603;28;20416;-76
2022/03/22 02:14:35;;;;;;;21.45;13.20;;;3.10;70.80;;;1.71;58.75;98633.41;5011240;28;20407;-76
2022/03/22 02:17:08;;;;;;;22.50;13.50;;;3.00;70.70;;;1.72;58.28;98630.66;5011328;28;20401;-76
2022/03/22 02:19:36;;;;;;;23.98;14.77;;;3.00;70.80;;;1.73;59.27;98627.03;5011269;28;20612;-76
2022/03/22 02:22:05;;;;;;;21.10;13.10;;;3.00;71.60;;;1.56;58.91;98628.03;5010625;28;20405;-76
2022/03/22 02:24:32;;;;;;;24.75;14.35;;;2.90;71.40;;;1.66;58.99;98625.25;5011094;28;20400;-77
2022/03/22 02:26:59;;;;;;;24.88;14.80;;;2.90;71.40;;;1.73;59.38;98634.06;5011002;28;20408;-76
2022/03/22 02:29:25;;;;;;;22.90;14.05;;;2.90;72.10;;;1.75;59.18;98637.31;5010897;28;20823;-76
2022/03/22 02:31:54;;;;;;;22.87;14.03;;;2.90;72.10;;;1.61;59.27;98635.38;5010083;28;20586;-76
2022/03/22 02:34:20;;;;;;;25.92;14.50;;;2.90;71.90;;;1.65;59.59;98634.91;5010881;28;20401;-76
2022/03/22 02:36:46;;;;;;;24.00;13.75;;;2.90;73.10;;;1.52;59.44;98640.59;5009724;28;20424;-76
2022/03/22 02:39:12;;;;;;;20.83;12.90;;;2.80;72.30;;;1.48;59.50;98630.66;5010827;28;20419;-76
2022/03/22 02:41:39;;;;;;;23.35;13.88;;;2.80;72.30;;;1.61;59.51;98627.53;5010323;28;20496;-76
2022/03/22 02:44:05;;;;;;;24.17;13.80;;;2.80;72.40;;;1.53;59.47;98636.19;5010689;28;20435;-76
2022/03/22 02:46:32;;;;;;;26.35;14.75;;;2.80;72.90;;;1.65;59.23;98629.69;5011164;28;20417;-77
2022/03/22 02:48:57;;;;;;;24.20;14.23;;;2.80;72.50;;;1.61;59.27;98633.56;5010673;28;20420;-76
2022/03/22 02:51:23;;;;;;;22.35;13.60;;;2.80;72.20;;;1.51;59.34;98635.53;5008892;28;20972;-76
2022/03/22 02:53:49;;;;;;;24.07;13.77;;;2.80;72.10;;;1.50;59.63;98626.88;5010761;28;20909;-76
2022/03/22 02:56:15;;;;;;;21.52;13.25;;;2.80;72.30;;;1.48;59.51;98636.69;5010850;28;20496;-76
2022/03/22 02:58:42;;;;;;;21.67;12.97;;;2.80;72.50;;;1.35;59.65;98631.13;5010841;28;20485;-76
2022/03/22 03:01:09;;;;;;;19.75;12.55;;;2.70;72.50;;;1.32;59.83;98635.84;5009989;28;20408;-76
2022/03/22 03:03:35;;;;;;;20.57;13.03;;;2.70;72.50;;;1.34;60.02;98637.31;5010863;28;20405;-76
2022/03/22 03:06:01;;;;;;;21.40;13.07;;;2.70;73.10;;;1.31;59.74;98636.81;5010647;28;20985;-77
2022/03/22 03:08:27;;;;;;;20.27;12.67;;;2.70;72.90;;;1.29;59.93;98633.56;5010569;28;20413;-77
2022/03/22 03:10:53;;;;;;;22.75;12.82;;;2.60;72.90;;;1.24;60.28;98633.22;5010072;28;20413;-77
2022/03/22 03:13:19;;;;;;;20.83;12.73;;;2.60;73.20;;;1.15;60.46;98635.81;5010411;28;20408;-76
2022/03/22 03:15:47;;;;;;;25.90;15.13;;;2.50;73.20;;;1.34;60.86;98629.50;5010508;28;20766;-77
2022/03/22 03:18:13;;;;;;;24.02;14.70;;;2.50;73.90;;;1.27;60.88;98636.34;5010644;28;20910;-77
2022/03/22 03:20:39;;;;;;;23.85;14.07;;;2.60;74.00;;;1.15;60.66;98645.44;5010037;28;20409;-77
2022/03/22 03:23:05;;;;;;;22.90;14.50;;;2.50;73.80;;;1.30;61.14;98633.41;5010421;28;20487;-76
2022/03/22 03:25:31;;;;;;;28.92;15.68;;;2.50;74.30;;;1.30;61.02;98636.00;5010583;28;20405;-77
2022/03/22 03:27:57;;;;;;;25.42;15.15;;;2.50;74.40;;;1.13;61.02;98636.94;5010490;28;20471;-76
2022/03/22 03:30:23;;;;;;;26.63;13.82;;;2.50;74.40;;;1.08;61.27;98637.44;5009956;28;20435;-77
2022/03/22 03:32:50;;;;;;;21.80;13.60;;;2.40;74.50;;;1.05;61.29;98637.75;5010377;28;20440;-77
2022/03/22 03:35:16;;;;;;;20.08;13.00;;;2.40;74.60;;;0.97;61.40;98642.16;5010464;28;20463;-77
2022/03/22 03:37:43;;;;;;;23.67;13.48;;;2.30;74.60;;;1.00;61.58;98647.84;5010407;28;20401;-77
2022/03/22 03:40:12;;;;;;;26.02;15.77;;;2.30;75.10;;;1.07;61.25;98642.81;5009933;28;20401;-77
2022/03/22 03:42:42;;;;;;;26.25;14.90;;;2.30;75.30;;;0.99;61.56;98650.59;5010772;28;20708;-77
2022/03/22 03:47:57;;;;;;;25.02;14.68;;;2.40;75.30;;;1.01;61.60;98648.66;5014109;28;20459;-77
2022/03/22 03:50:23;;;;;;;29.25;16.05;;;2.40;75.10;;;1.12;61.79;98648.38;5013355;28;20508;-77
2022/03/22 03:52:49;;;;;;;27.58;15.00;;;2.40;75.60;;;1.07;61.98;98646.22;5013812;28;20762;-77
2022/03/22 03:55:15;;;;;;;22.52;14.07;;;2.40;75.60;;;0.98;61.59;98649.78;5013876;28;20463;-77
2022/03/22 03:57:41;;;;;;;25.65;14.30;;;2.30;75.40;;;1.06;62.03;98649.81;5013919;28;20988;-76
2022/03/22 04:00:09;;;;;;;26.65;15.98;;;2.40;75.80;;;1.16;62.08;98645.28;5013371;28;20744;-77
2022/03/22 04:02:34;;;;;;;26.95;15.20;;;2.40;76.30;;;1.07;62.05;98648.03;5013449;28;20409;-77
2022/03/22 04:05:02;;;;;;;27.35;16.20;;;2.40;76.30;;;1.11;61.92;98644.13;5013464;28;20412;-77
2022/03/22 04:07:28;;;;;;;29.27;16.20;;;2.30;76.30;;;1.11;62.12;98644.13;5013622;28;20405;-76
2022/03/22 04:09:54;;;;;;;31.45;16.13;;;2.40;76.30;;;1.12;61.91;98648.38;5013493;28;20440;-77
2022/03/22 04:12:22;;;;;;;27.90;15.60;;;2.30;76.30;;;1.11;62.08;98644.94;5012897;28;20417;-77
2022/03/22 04:14:50;;;;;;;25.45;13.60;;;2.40;76.50;;;0.94;62.00;98645.88;5013588;28;20476;-77
2022/03/22 04:17:18;;;;;;;20.40;13.27;;;2.30;76.10;;;0.85;62.11;98644.22;5013648;28;20522;-77
2022/03/22 04:19:45;;;;;;;27.42;14.23;;;2.20;76.30;;;0.89;62.09;98650.78;5013191;28;20419;-77
2022/03/22 04:22:13;;;;;;;23.90;13.70;;;2.30;76.50;;;0.86;62.09;98650.25;5012938;28;20495;-77
2022/03/22 04:24:39;;;;;;;26.42;14.27;;;2.20;76.40;;;0.93;62.12;98646.03;5013356;28;20416;-77
2022/03/22 04:32:44;;;;;;;25.50;15.00;;;2.10;76.40;;;0.87;62.43;98650.09;5013181;28;20396;-76
2022/03/22 04:35:12;;;;;;;23.83;14.57;;;2.20;76.60;;;0.79;62.68;98652.69;5013268;28;20420;-74
2022/03/22 04:37:39;;;;;;;24.73;14.23;;;2.20;76.70;;;0.71;62.61;98650.88;5013099;28;20404;-75
2022/03/22 04:40:07;;;;;;;26.48;15.68;;;2.10;76.60;;;0.80;62.53;98656.94;5013040;28;20429;-75
2022/03/22 04:42:34;;;;;;;23.95;13.95;;;2.10;77.00;;;0.67;62.80;98664.38;5012948;28;20961;-75
2022/03/22 04:45:01;;;;;;;29.57;16.63;;;2.00;76.80;;;0.81;62.28;98661.16;5013026;28;20436;-76
2022/03/22 04:47:26;;;;;;;30.70;16.40;;;2.10;77.00;;;0.80;62.53;98656.94;5012794;28;20409;-75
2022/03/22 04:49:53;;;;;;;26.10;15.15;;;2.00;77.00;;;0.66;62.91;98662.75;5011320;28;20471;-75
2022/03/22 04:57:52;;;;;;;24.00;14.47;;;2.00;77.80;;;0.57;62.90;98661.06;5012670;28;20400;-75
2022/03/22 05:00:19;;;;;;;27.55;15.18;;;1.90;77.80;;;0.66;63.39;98671.38;5012150;28;20759;-75
2022/03/22 05:02:45;;;;;;;23.20;15.05;;;1.90;78.10;;;0.49;63.37;98679.25;5010382;28;20528;-75
2022/03/22 05:05:11;;;;;;;22.05;13.73;;;1.90;77.90;;;0.38;63.69;98682.94;5012396;28;20444;-75
2022/03/22 05:07:37;;;;;;;24.38;15.32;;;1.80;78.00;;;0.49;62.92;98682.69;5010966;28;20440;-75
2022/03/22 05:10:06;;;;;;;30.50;16.50;;;1.90;78.00;;;0.57;63.53;98679.31;5012084;28;21032;-75
2022/03/22 05:12:31;;;;;;;24.92;15.77;;;1.90;78.30;;;0.46;63.71;98684.75;5012054;28;20408;-74
2022/03/22 05:14:57;;;;;;;23.40;14.55;;;1.80;78.30;;;0.32;63.42;98686.97;4995687;28;20494;-74
2022/03/22 05:17:23;;;;;;;29.25;15.80;;;1.70;79.00;;;0.41;63.82;98692.25;4991509;28;20418;-74
2022/03/22 05:19:50;;;;;;;25.27;14.07;;;1.70;78.70;;;0.27;63.76;98697.06;4992565;28;20406;-74
2022/03/22 05:22:16;;;;;;;20.10;13.30;;;1.70;78.50;;;0.21;63.82;98697.66;4992258;28;20441;-74
2022/03/22 05:24:42;;;;;;;25.55;15.88;;;1.60;78.70;;;0.38;64.11;98699.38;4992542;28;20402;-74
2022/03/22 05:27:09;;;;;;;31.90;16.80;;;1.70;79.10;;;0.39;63.98;98695.00;4999867;28;20427;-74
2022/03/22 05:29:35;;;;;;;27.30;16.67;;;1.70;79.30;;;0.33;64.11;98691.22;5011864;28;20409;-74
2022/03/22 05:32:02;;;;;;;29.08;16.42;;;1.70;79.40;;;0.32;64.11;98692.19;5011428;28;20450;-74
2022/03/22 05:34:28;;;;;;;30.50;17.25;;;1.70;79.50;;;0.37;64.50;98697.78;5011752;28;20397;-75
2022/03/22 05:36:54;;;;;;;26.33;15.25;;;1.70;79.60;;;0.31;64.58;98698.38;5012014;28;20817;-74
2022/03/22 05:39:20;;;;;;;26.15;15.75;;;1.70;79.50;;;0.33;64.62;98703.44;5011752;28;20408;-74
2022/03/22 05:41:45;;;;;;;27.10;15.95;;;1.70;79.50;;;0.34;64.48;98703.28;5011569;28;20408;-76
2022/03/22 05:44:13;;;;;;;27.77;16.57;;;1.70;79.50;;;0.41;64.17;98705.25;5011837;28;20416;-74
2022/03/22 05:46:39;;;;;;;27.37;16.37;;;1.70;79.50;;;0.41;64.18;98703.47;5011747;28;20440;-75
2022/03/22 05:49:08;;;;;;;26.63;15.70;;;1.70;79.40;;;0.33;64.38;98706.84;5011465;28;20409;-75
2022/03/22 05:51:36;;;;;;;25.73;14.77;;;1.70;79.30;;;0.29;64.44;98699.50;5011236;28;20421;-74
2022/03/22 05:54:02;;;;;;;23.27;14.43;;;1.70;79.50;;;0.33;64.17;98704.25;5011697;28;20405;-73
2022/03/22 05:56:28;;;;;;;26.88;16.63;;;1.70;79.70;;;0.48;64.27;98708.88;5011599;28;20412;-76
2022/03/22 05:58:54;;;;;;;29.50;16.70;;;1.80;80.00;;;0.51;64.36;98708.59;5011453;28;20432;-76
2022/03/22 06:01:22;;;;;;;27.20;16.38;;;1.80;79.90;;;0.53;64.70;98702.22;5010538;28;20439;-75
2022/03/22 06:03:48;;;;;;;28.48;16.48;;;1.80;80.10;;;0.62;64.49;98701.31;5011207;28;20409;-75
2022/03/22 06:06:13;;;;;;;29.80;17.35;;;1.90;80.30;;;0.63;64.95;98700.34;5010726;28;20526;-74
2022/03/22 06:08:40;;;;;;;25.88;15.70;;;1.90;80.90;;;0.62;64.98;98703.09;5011077;28;20438;-74
2022/03/22 06:11:06;;;;;;;29.65;18.02;;;1.90;80.70;;;0.74;64.82;98699.25;5010340;28;20474;-76
2022/03/22 06:13:32;;;;;;;28.75;16.95;;;1.90;81.00;;;0.71;64.91;98696.94;5011129;28;20543;-75
2022/03/22 06:15:58;;;;;;;26.30;16.17;;;2.00;80.80;;;0.76;64.77;98694.69;5011283;28;20441;-74
2022/03/22 06:18:26;;;;;;;25.58;15.25;;;2.00;80.80;;;0.77;64.90;98691.09;5011193;28;20404;-74
2022/03/22 06:20:52;;;;;;;22.63;13.73;;;2.10;80.70;;;0.80;64.71;98696.00;5010779;28;20432;-75
2022/03/22 06:23:19;;;;;;;24.20;14.55;;;2.10;80.50;;;0.89;64.55;98683.84;5011100;28;20440;-77
2022/03/22 06:25:45;;;;;;;22.63;14.20;;;2.20;80.50;;;0.91;64.37;98694.91;5011153;28;20488;-75
2022/03/22 06:28:14;;;;;;;26.75;16.77;;;2.20;80.30;;;1.05;64.63;98696.94;5011259;28;20420;-75
2022/03/22 06:30:41;;;;;;;26.58;15.95;;;2.30;80.50;;;1.06;64.43;98701.13;5010548;28;20826;-75
2022/03/22 06:33:13;;;;;;;23.77;14.25;;;2.30;80.20;;;1.09;64.19;98695.63;5010919;28;20454;-75
2022/03/22 06:35:42;;;;;;;21.83;13.40;;;2.40;80.00;;;1.16;64.09;98697.44;5011022;28;20579;-75
2022/03/22 06:38:08;;;;;;;23.10;13.93;;;2.40;79.90;;;1.25;63.76;98697.47;5010932;28;20409;-76
2022/03/22 06:40:37;;;;;;;22.67;14.15;;;2.50;79.70;;;1.34;63.78;98699.94;5010639;28;20408;-73
2022/03/22 06:43:06;;;;;;;22.63;14.60;;;2.60;79.50;;;1.44;63.32;98697.97;5010791;28;20412;-76
2022/03/22 06:45:32;;;;;;;23.42;13.60;;;2.70;79.30;;;1.54;62.90;98693.44;5010941;28;20763;-76
2022/03/22 06:47:58;;;;;;;24.52;14.57;;;2.70;79.00;;;1.66;63.04;98690.50;5010810;28;20412;-76
2022/03/22 06:50:24;;;;;;;25.05;15.30;;;2.80;78.80;;;1.75;62.51;98698.16;5010221;28;20431;-77
2022/03/22 06:52:53;;;;;;;23.10;14.43;;;3.00;78.60;;;1.84;62.37;98689.38;5010670;28;20923;-77
2022/03/22 06:55:22;;;;;;;23.85;14.52;;;3.00;78.20;;;1.94;62.53;98690.03;5010780;28;20409;-74
2022/03/22 06:57:50;;;;;;;25.27;14.43;;;3.10;78.00;;;2.06;62.10;98692.28;5010725;28;20516;-75
2022/03/22 07:00:18;;;;;;;23.40;13.93;;;3.20;77.80;;;2.17;61.74;98691.97;5010354;28;20401;-76
2022/03/22 07:02:45;;;;;;;21.02;13.23;;;3.30;77.50;;;2.27;61.57;98688.16;5010573;28;20801;-76
2022/03/22 07:05:12;;;;;;;21.52;13.02;;;3.40;77.20;;;2.38;61.68;98697.47;5010648;28;20902;-75
2022/03/22 07:07:38;;;;;;;20.85;13.07;;;3.50;77.00;;;2.48;61.29;98702.53;5010678;28;20469;-74
2022/03/22 07:10:09;;;;;;;23.17;14.43;;;3.60;76.80;;;2.55;61.24;98709.53;5010257;28;20432;-74
2022/03/22 07:12:45;;;;;;;21.00;13.30;;;3.70;76.90;;;2.66;61.43;98706.53;5015473;22;20446;-78
2022/03/22 07:15:11;;;;;;;22.30;14.00;;;3.80;76.70;;;2.79;61.08;98707.78;4989729;28;20772;-77
2022/03/22 07:17:38;;;;;;;23.37;14.23;;;3.90;76.30;;;2.91;60.72;98715.13;4992996;28;20434;-76
2022/03/22 07:20:05;;;;;;;26.00;14.43;;;4.00;76.10;;;3.01;60.64;98723.56;4994910;28;20406;-79
2022/03/22 07:22:31;;;;;;;25.38;14.63;;;4.10;75.80;;;3.15;60.58;98716.81;4994911;28;20425;-78
2022/03/22 07:24:58;;;;;;;23.40;13.93;;;4.20;75.50;;;3.26;60.18;98721.66;4995268;28;20749;-79
2022/03/22 07:27:25;;;;;;;24.90;14.55;;;4.40;75.40;;;3.38;60.06;98722.09;4995141;28;20918;-78
2022/03/22 07:29:51;;;;;;;23.05;14.18;;;4.50;75.10;;;3.48;59.75;98720.88;4995187;28;20814;-80
2022/03/22 07:32:17;;;;;;;24.83;14.15;;;4.60;74.80;;;3.59;59.47;98719.66;4990149;28;20426;-78
2022/03/22 07:34:43;;;;;;;23.92;13.68;;;4.60;74.40;;;3.68;59.09;98716.00;4994827;28;20406;-81
2022/03/22 07:37:10;;;;;;;22.17;13.70;;;4.70;74.10;;;3.79;58.91;98717.38;4994757;28;20510;-76
2022/03/22 07:39:36;;;;;;;23.77;13.82;;;4.80;73.50;;;3.87;58.42;98717.31;4990647;28;20445;-80
2022/03/22 07:42:02;;;;;;;24.05;14.35;;;4.90;73.10;;;3.95;58.13;98714.66;4997270;28;20865;-75
2022/03/22 07:44:31;;;;;;;24.50;14.88;;;5.00;72.70;;;4.01;58.02;98718.34;4992797;28;20419;-79
2022/03/22 07:46:57;;;;;;;23.00;13.50;;;5.10;72.60;;;4.13;58.19;98724.81;4993016;28;20406;-78
2022/03/22 07:54:52;;;;;;;25.52;15.70;;;5.40;72.10;;;4.39;57.60;98727.03;4989653;28;20497;-78
2022/03/22 07:57:19;;;;;;;26.03;14.17;;;5.40;71.90;;;4.46;57.45;98726.13;4994688;28;20410;-77
2022/03/22 07:59:46;;;;;;;25.70;14.80;;;5.50;71.60;;;4.54;56.96;98718.19;4995094;28;20405;-80
2022/03/22 08:02:12;;;;;;;22.95;14.10;;;5.50;71.20;;;4.59;56.86;98718.44;4992932;28;20407;-77
2022/03/22 08:04:38;;;;;;;28.77;15.43;;;5.60;70.90;;;4.66;56.76;98715.94;4996353;28;20421;-76
2022/03/22 08:07:04;;;;;;;25.67;15.00;;;5.70;70.60;;;4.76;56.52;98719.09;4994391;28;20411;-78
2022/03/22 08:09:30;;;;;;;24.73;14.27;;;5.80;70.40;;;4.86;56.19;98722.28;4993852;28;20406;-76
2022/03/22 08:11:56;;;;;;;27.67;16.47;;;5.90;70.20;;;4.93;55.69;98724.97;4993385;28;20453;-76
2022/03/22 08:14:22;;;;;;;28.33;15.10;;;5.90;69.30;;;5.02;55.52;98722.09;4993956;28;20493;-77
2022/03/22 08:16:49;;;;;;;25.80;14.07;;;6.00;69.10;;;5.14;55.37;98726.84;4993943;28;20776;-77
2022/03/22 08:19:18;;;;;;;25.88;14.50;;;6.10;68.90;;;5.21;55.06;98733.00;4993483;28;20504;-79
2022/03/22 08:21:45;;;;;;;26.27;14.02;;;6.20;68.50;;;5.29;55.03;98728.44;4993393;28;20406;-77
2022/03/22 08:24:12;;;;;;;26.13;13.98;;;6.30;68.40;;;5.38;55.05;98732.59;4993890;28;20399;-77
2022/03/22 08:26:38;;;;;;;29.33;15.70;;;6.40;68.20;;;5.46;54.74;98731.69;4993881;28;20403;-77
2022/03/22 08:29:04;;;;;;;24.02;14.57;;;6.40;68.00;;;5.54;54.57;98728.13;4979391;28;20922;-76
2022/03/22 08:31:30;;;;;;;25.65;14.45;;;6.50;68.60;;;5.60;54.34;98725.56;4983732;28;20916;-75
2022/03/22 08:33:57;;;;;;;24.45;14.38;;;6.50;67.40;;;5.68;54.16;98722.00;4983154;28;20523;-75
2022/03/22 08:36:23;;;;;;;26.25;14.73;;;6.60;67.30;;;5.76;54.26;98727.97;4987156;28;20417;-76
2022/03/22 08:38:50;;;;;;;23.80;13.95;;;6.70;67.10;;;5.85;54.09;98723.41;4990176;28;20765;-77
2022/03/22 08:41:16;;;;;;;21.45;13.73;;;6.80;67.00;;;5.94;54.09;98724.13;4992813;28;20844;-80
2022/03/22 08:43:42;;;;;;;24.13;15.00;;;6.90;66.90;;;6.04;53.97;98727.22;4992721;28;20416;-77
2022/03/22 08:46:08;;;;;;;25.58;14.50;;;6.90;66.80;;;6.15;53.66;98722.28;4995185;28;20501;-75
2022/03/22 08:48:37;;;;;;;25.65;14.77;;;7.10;66.60;;;6.25;53.55;98721.13;4995256;28;20859;-76
2022/03/22 08:51:05;;;;;;;20.77;12.90;;;7.20;66.40;;;6.34;53.57;98726.06;4999565;28;20804;-76
2022/03/22 08:53:31;;;;;;;28.10;15.73;;;7.20;66.30;;;6.43;53.45;98724.91;5000928;28;20453;-76
2022/03/22 08:55:57;;;;;;;30.95;16.73;;;7.30;66.10;;;6.53;52.84;98728.03;4993103;28;20958;-76
2022/03/22 08:58:22;;;;;;;25.85;15.82;;;7.40;65.50;;;6.64;52.64;98718.78;4993201;28;20502;-75
2022/03/22 09:00:48;;;;;;;28.87;15.63;;;7.50;65.30;;;6.73;52.50;98720.25;4992319;28;20409;-76
2022/03/22 09:03:15;;;;;;;22.73;14.35;;;7.60;64.90;;;6.83;52.25;98714.66;5001114;28;20424;-76
2022/03/22 09:08:27;;;;;;;21.27;14.02;;;7.80;64.20;;;7.00;51.72;98714.13;5001127;28;20481;-76
2022/03/22 09:10:53;;;;;;;24.50;14.80;;;7.90;63.90;;;7.07;51.55;98711.50;5002546;28;20430;-77
2022/03/22 09:13:20;;;;;;;26.45;15.57;;;8.00;63.60;;;7.16;51.67;98715.59;5003387;28;20762;-77
2022/03/22 09:15:48;;;;;;;24.40;14.25;;;8.00;63.70;;;7.26;51.90;98721.31;5005887;28;20798;-77
2022/03/22 09:18:14;;;;;;;27.45;15.77;;;8.10;63.90;;;7.37;51.16;98723.38;5004201;28;20413;-77
2022/03/22 09:20:41;;;;;;;23.27;15.15;;;8.20;62.90;;;7.48;51.13;98723.81;5004895;28;20404;-77
2022/03/22 09:23:09;;;;;;;25.75;15.13;;;8.40;62.90;;;7.58;50.87;98729.53;5000000;28;20408;-77
2022/03/22 09:25:37;;;;;;;24.63;14.02;;;8.40;62.80;;;7.68;50.53;98725.50;4997080;28;20487;-77
2022/03/22 09:28:05;;;;;;;23.35;14.70;;;8.50;62.30;;;7.76;50.33;98720.03;4998861;28;20517;-78
2022/03/22 09:30:32;;;;;;;29.77;15.23;;;8.60;62.10;;;7.85;50.19;98718.03;5000868;28;20515;-77
2022/03/22 09:32:58;;;;;;;21.47;14.50;;;8.70;61.70;;;7.93;49.87;98719.66;4993482;28;20406;-77
2022/03/22 09:35:24;;;;;;;22.88;13.60;;;8.70;61.30;;;8.02;50.10;98715.81;4992646;28;20409;-78
2022/03/22 09:37:51;;;;;;;22.92;14.10;;;8.80;61.40;;;8.10;49.79;98718.25;4992620;28;20403;-78
2022/03/22 09:40:18;;;;;;;29.17;14.57;;;8.90;61.10;;;8.20;49.79;98715.19;4992455;28;20427;-76
2022/03/22 09:42:46;;;;;;;25.33;14.77;;;9.00;61.00;;;8.30;49.78;98713.78;5000932;28;20407;-76
2022/03/22 09:45:17;;;;;;;21.08;13.82;;;9.10;61.00;;;8.42;49.63;98714.03;5000713;28;20413;-76
2022/03/22 09:47:45;;;;;;;22.23;14.38;;;9.20;61.00;;;8.54;49.36;98712.38;4994444;28;20940;-76
2022/03/22 09:50:13;;;;;;;23.35;14.00;;;9.30;60.60;;;8.66;49.16;98713.38;4998903;28;20401;-78
2022/03/22 09:52:39;;;;;;;25.98;14.55;;;9.40;60.20;;;8.77;48.51;98711.94;4997275;28;20413;-77
2022/03/22 09:55:10;;;;;;;23.05;13.90;;;9.50;59.60;;;8.91;48.09;98711.69;5001646;28;20410;-76
2022/03/22 09:58:04;;;;;;;20.85;13.45;;;9.70;59.00;;;9.08;47.37;98708.59;4991286;28;20405;-77
2022/03/22 10:00:30;;;;;;;22.63;13.23;;;9.80;58.30;;;9.22;47.03;98704.88;4991756;28;20406;-76
2022/03/22 10:02:56;;;;;;;24.55;13.88;;;10.00;58.00;;;9.36;46.82;98710.91;4991882;28;20497;-75
2022/03/22 10:05:24;;;;;;;26.13;13.98;;;10.10;57.60;;;9.51;46.52;98700.88;4992064;28;20415;-75
2022/03/22 10:07:58;;;;;;;21.83;13.73;;;10.20;57.30;;;9.79;45.74;98701.31;4992089;28;20466;-75
2022/03/22 10:10:25;;;;;;;23.15;13.80;;;10.40;56.80;;;10.35;44.95;98700.53;4990731;28;20493;-76
2022/03/22 10:12:58;;;;;;;22.90;14.07;;;10.90;56.00;;;11.18;42.59;98700.88;4991286;28;20694;-76
2022/03/22 10:15:31;;;;;;;22.40;14.25;;;11.80;53.40;;;12.36;40.59;98698.38;4981173;28;20895;-76
2022/03/22 10:18:06;;;;;;;21.77;13.00;;;13.10;51.20;;;13.82;38.31;98700.63;4987151;28;20410;-76
2022/03/22 10:20:35;;;;;;;30.75;16.50;;;14.60;48.00;;;14.78;33.00;98700.56;4996095;28;20397;-77
2022/03/22 10:23:03;;;;;;;23.15;14.52;;;15.80;40.00;;;15.81;33.31;98692.47;4990913;28;20442;-76
2022/03/22 10:25:31;;;;;;;23.70;14.10;;;16.70;40.90;;;16.67;32.14;98703.06;4996674;28;20412;-76
2022/03/22 10:28:00;;;;;;;19.27;13.63;;;17.40;39.90;;;17.26;30.84;98695.59;4995390;28;20423;-77
2022/03/22 10:30:27;;;;;;;17.15;11.50;;;18.10;37.80;;;17.99;30.57;98696.34;4993786;28;20434;-76
2022/03/22 10:32:53;;;;;;;45.22;19.00;;;18.80;37.60;;;18.86;29.45;98684.50;4999786;28;20402;-76
2022/03/22 10:35:21;;;;;;;20.23;13.65;;;19.70;36.10;;;19.75;28.23;98692.72;4991406;28;20415;-76
2022/03/22 10:37:51;;;;;;;21.10;13.83;;;20.60;34.50;;;20.45;26.66;98694.06;4992067;28;20399;-86
2022/03/22 10:40:26;;;;;;;27.33;17.70;;;21.40;32.30;;;20.19;23.73;98685.41;4997075;28;20406;-79
2022/03/22 10:42:55;;;;;;;19.50;13.27;;;20.80;28.20;;;21.03;24.65;98689.44;4996646;28;20410;-78
2022/03/22 10:45:22;;;;;;;21.88;14.48;;;21.70;29.90;;;21.73;24.51;98681.53;4991361;28;20734;-80